Time;durP1;ratioP1;P1;durP2;ratioP2;P2;SDS_P1;SDS_P2;PMS_P1;PMS_P2;Temp;Humidity;BMP_temperature;BMP_pressure;BME280_temperature;BME280_humidity;BME280_pressure;Samples;Min_cycle;Max_cycle;Signal;HPM_P1;HPM_P2
2021/08/12 00:02:10;;;;;;;10.18;6.05;;;;;;;;;;5016903;28;20489;-77
2021/08/12 00:04:36;;;;;;;9.02;5.38;;;;;;;;;;5016906;28;20476;-79
2021/08/12 00:07:02;;;;;;;8.65;6.00;;;;;;;;;;5016452;28;20050;-79
2021/08/12 00:09:28;;;;;;;9.02;5.38;;;;;;;;;;5017151;28;20105;-76
2021/08/12 00:11:57;;;;;;;7.60;5.45;;;;;;;;;;5016525;28;20116;-77
2021/08/12 00:14:23;;;;;;;10.93;5.97;;;;;;;;;;5015267;28;20509;-76
2021/08/12 00:16:49;;;;;;;9.13;6.03;;;;;;;;;;5016389;28;20030;-75
2021/08/12 00:19:15;;;;;;;11.45;5.97;;;;;;;;;;5016936;28;20030;-81
2021/08/12 00:21:41;;;;;;;10.88;6.20;;;;;;;;;;5016330;28;20028;-77
2021/08/12 00:24:08;;;;;;;9.90;6.72;;;;;;;;;;5016325;28;20025;-77
2021/08/12 00:26:34;;;;;;;9.13;6.30;;;;;;;;;;5016533;28;20033;-78
2021/08/12 00:29:00;;;;;;;8.65;6.00;;;;;;;;;;5016509;28;20022;-75
2021/08/12 00:31:26;;;;;;;11.02;5.80;;;;;;;;;;5016422;28;20113;-75
2021/08/12 00:33:52;;;;;;;7.85;5.38;;;;;;;;;;5016408;28;20124;-76
2021/08/12 00:36:18;;;;;;;10.80;5.45;;;;;;;;;;5015972;28;20038;-76
2021/08/12 00:38:44;;;;;;;6.45;4.70;;;;;;;;;;5014766;28;20088;-76
2021/08/12 00:41:12;;;;;;;8.40;5.25;;;;;;;;;;5015963;28;20030;-74
2021/08/12 00:43:37;;;;;;;11.32;6.03;;;;;;;;;;5016209;28;20018;-76
2021/08/12 00:46:03;;;;;;;8.07;5.38;;;;;;;;;;5015891;28;20103;-78
2021/08/12 00:48:29;;;;;;;9.13;5.70;;;;;;;;;;5015827;28;20026;-77
2021/08/12 00:50:56;;;;;;;8.98;6.13;;;;;;;;;;5016338;28;20032;-77
2021/08/12 00:53:22;;;;;;;8.80;5.75;;;;;;;;;;5015762;28;20111;-74
2021/08/12 00:55:48;;;;;;;9.43;6.05;;;;;;;;;;5014935;28;20033;-75
2021/08/12 00:58:15;;;;;;;9.77;6.28;;;;;;;;;;5015671;28;20018;-73
2021/08/12 01:00:41;;;;;;;8.15;5.70;;;;;;;;;;5015610;28;20026;-74
2021/08/12 01:03:10;;;;;;;7.88;5.53;;;;;;;;;;5015782;28;20021;-74
2021/08/12 01:05:42;;;;;;;8.97;5.77;;;;;;;;;;5015317;28;20076;-78
2021/08/12 01:08:16;;;;;;;8.75;5.82;;;;;;;;;;5015748;28;20295;-79
2021/08/12 01:10:48;;;;;;;8.18;5.28;;;;;;;;;;5014160;28;20018;-76
2021/08/12 01:13:14;;;;;;;10.82;5.80;;;;;;;;;;5015352;28;20026;-78
2021/08/12 01:15:50;;;;;;;8.82;5.45;;;;;;;;;;5015241;28;20449;-79
2021/08/12 01:18:22;;;;;;;9.05;5.90;;;;;;;;;;5015828;28;20105;-74
2021/08/12 01:21:10;;;;;;;7.90;5.53;;;;;;;;;;5015205;28;20445;-78
2021/08/12 01:23:37;;;;;;;7.03;5.38;;;;;;;;;;5015756;28;20447;-75
2021/08/12 01:26:04;;;;;;;8.75;5.72;;;;;;;;;;5015421;28;20121;-75
2021/08/12 01:28:32;;;;;;;9.68;5.88;;;;;;;;;;5015085;28;20034;-73
2021/08/12 01:31:08;;;;;;;6.88;5.07;;;;;;;;;;5015294;28;20026;-75
2021/08/12 01:33:39;;;;;;;7.47;5.22;;;;;;;;;;5013469;28;20099;-78
2021/08/12 01:36:07;;;;;;;8.05;5.32;;;;;;;;;;5014890;28;20060;-77
2021/08/12 01:38:33;;;;;;;13.85;6.35;;;;;;;;;;5014926;28;20022;-76
2021/08/12 01:40:59;;;;;;;8.63;5.38;;;;;;;;;;5014861;28;20033;-77
2021/08/12 01:43:26;;;;;;;9.65;5.32;;;;;;;;;;5013547;28;20493;-78
2021/08/12 01:45:53;;;;;;;8.85;5.40;;;;;;;;;;5014765;28;20221;-79
2021/08/12 01:48:22;;;;;;;11.10;5.88;;;;;;;;;;5014738;28;20105;-75
2021/08/12 01:50:49;;;;;;;8.52;5.18;;;;;;;;;;5014721;28;20022;-77
2021/08/12 01:53:16;;;;;;;9.55;5.50;;;;;;;;;;5014626;28;20108;-74
2021/08/12 01:55:42;;;;;;;8.15;6.40;;;;;;;;;;5014803;28;20030;-77
2021/08/12 01:58:10;;;;;;;9.60;5.50;;;;;;;;;;5014565;28;20036;-75
2021/08/12 02:00:36;;;;;;;8.48;5.50;;;;;;;;;;5014518;28;20018;-77
2021/08/12 02:03:03;;;;;;;9.60;6.13;;;;;;;;;;5014715;28;20521;-74
2021/08/12 02:05:29;;;;;;;10.18;6.05;;;;;;;;;;5014513;28;20022;-73
2021/08/12 02:07:55;;;;;;;9.68;5.82;;;;;;;;;;5029841;28;20030;-73
2021/08/12 02:10:21;;;;;;;8.40;5.88;;;;;;;;;;5025337;28;20018;-73
2021/08/12 02:12:47;;;;;;;9.20;6.13;;;;;;;;;;5023957;28;20030;-73
2021/08/12 02:15:14;;;;;;;8.75;5.50;;;;;;;;;;5026109;28;20085;-75
2021/08/12 02:17:40;;;;;;;9.80;5.82;;;;;;;;;;5014887;28;20037;-77
2021/08/12 02:20:08;;;;;;;9.57;5.88;;;;;;;;;;5014459;28;20080;-77
2021/08/12 02:22:37;;;;;;;7.13;4.65;;;;;;;;;;5014456;28;20421;-74
2021/08/12 02:25:04;;;;;;;7.32;5.05;;;;;;;;;;5014356;28;20024;-76
2021/08/12 02:27:31;;;;;;;8.45;5.55;;;;;;;;;;5012816;28;20026;-77
2021/08/12 02:29:57;;;;;;;9.77;5.60;;;;;;;;;;5014244;28;20033;-75
2021/08/12 02:32:26;;;;;;;7.97;5.38;;;;;;;;;;5012959;28;20117;-76
2021/08/12 02:34:52;;;;;;;8.38;4.72;;;;;;;;;;5014448;28;20478;-77
2021/08/12 02:37:19;;;;;;;8.90;5.55;;;;;;;;;;5014018;28;20140;-76
2021/08/12 02:39:46;;;;;;;10.75;5.57;;;;;;;;;;5014452;28;20108;-76
2021/08/12 02:42:12;;;;;;;9.55;5.72;;;;;;;;;;5014272;28;20026;-79
2021/08/12 02:44:40;;;;;;;9.45;5.85;;;;;;;;;;5014137;28;20029;-77
2021/08/12 02:47:07;;;;;;;9.95;5.63;;;;;;;;;;5014516;28;20157;-78
2021/08/12 02:49:36;;;;;;;9.00;5.53;;;;;;;;;;5013836;28;20033;-77
2021/08/12 02:52:03;;;;;;;10.85;6.20;;;;;;;;;;5014054;28;20037;-76
2021/08/12 02:54:29;;;;;;;9.65;5.88;;;;;;;;;;5013963;28;20026;-75
2021/08/12 02:56:58;;;;;;;9.27;5.43;;;;;;;;;;5013510;28;20406;-74
2021/08/12 02:59:24;;;;;;;7.50;4.63;;;;;;;;;;5013664;28;20092;-75
2021/08/12 03:01:52;;;;;;;7.50;4.63;;;;;;;;;;5014296;28;20033;-78
2021/08/12 03:04:19;;;;;;;8.65;4.88;;;;;;;;;;5015265;28;20050;-76
2021/08/12 03:06:46;;;;;;;8.15;5.50;;;;;;;;;;5013804;28;20058;-76
2021/08/12 03:09:14;;;;;;;9.85;5.65;;;;;;;;;;5013498;28;20021;-77
2021/08/12 03:11:40;;;;;;;8.57;5.95;;;;;;;;;;5013459;28;20398;-77
2021/08/12 03:14:06;;;;;;;10.45;6.13;;;;;;;;;;5013696;28;20529;-78
2021/08/12 03:16:32;;;;;;;8.88;5.78;;;;;;;;;;5013349;28;20123;-77
2021/08/12 03:18:59;;;;;;;9.63;5.55;;;;;;;;;;5016121;28;20022;-76
2021/08/12 03:21:25;;;;;;;12.52;5.72;;;;;;;;;;5017438;28;20030;-74
2021/08/12 03:23:51;;;;;;;11.32;5.43;;;;;;;;;;5017680;28;20025;-78
2021/08/12 03:26:18;;;;;;;7.40;5.10;;;;;;;;;;5017355;28;20030;-79
2021/08/12 03:28:44;;;;;;;8.50;4.97;;;;;;;;;;5017363;28;20113;-76
2021/08/12 03:31:10;;;;;;;9.23;5.30;;;;;;;;;;5017264;28;20030;-75
2021/08/12 03:33:37;;;;;;;12.32;5.60;;;;;;;;;;5017270;28;20030;-76
2021/08/12 03:36:03;;;;;;;7.85;5.25;;;;;;;;;;5017201;28;20076;-78
2021/08/12 03:38:29;;;;;;;7.65;5.32;;;;;;;;;;5017196;28;20045;-78
2021/08/12 03:40:55;;;;;;;9.00;5.45;;;;;;;;;;5017119;28;20060;-77
2021/08/12 03:43:23;;;;;;;8.88;5.10;;;;;;;;;;5017055;28;20022;-74
2021/08/12 03:45:49;;;;;;;13.07;5.50;;;;;;;;;;5017345;28;20029;-78
2021/08/12 03:48:15;;;;;;;8.65;4.68;;;;;;;;;;5017014;28;20055;-73
2021/08/12 03:50:41;;;;;;;10.10;5.15;;;;;;;;;;5017025;28;20041;-72
2021/08/12 03:53:07;;;;;;;8.35;4.97;;;;;;;;;;5017210;28;20026;-75
2021/08/12 03:55:33;;;;;;;7.18;5.05;;;;;;;;;;5016853;28;20033;-75
2021/08/12 03:57:59;;;;;;;9.35;5.28;;;;;;;;;;5017392;28;20022;-77
2021/08/12 04:00:25;;;;;;;7.97;5.20;;;;;;;;;;5016788;28;20037;-76
2021/08/12 04:02:51;;;;;;;9.65;5.28;;;;;;;;;;5016646;28;20026;-76
2021/08/12 04:05:17;;;;;;;10.43;5.03;;;;;;;;;;5017011;28;20026;-78
2021/08/12 04:07:43;;;;;;;7.82;4.90;;;;;;;;;;5016206;28;20057;-74
2021/08/12 04:10:10;;;;;;;6.53;4.53;;;;;;;;;;5016581;28;20028;-76
2021/08/12 04:12:36;;;;;;;7.85;5.38;;;;;;;;;;5015289;28;20065;-78
2021/08/12 04:15:02;;;;;;;8.77;5.00;;;;;;;;;;5016505;28;20500;-75
2021/08/12 04:17:28;;;;;;;8.40;5.03;;;;;;;;;;5016663;28;20030;-77
2021/08/12 04:19:54;;;;;;;9.23;5.00;;;;;;;;;;5016431;28;20371;-78
2021/08/12 04:22:20;;;;;;;7.40;5.07;;;;;;;;;;5016348;28;20029;-78
2021/08/12 04:24:46;;;;;;;8.40;4.75;;;;;;;;;;5016598;28;20030;-74
2021/08/12 04:27:14;;;;;;;9.70;5.88;;;;;;;;;;5015017;28;20026;-75
2021/08/12 04:29:40;;;;;;;7.25;5.28;;;;;;;;;;5014736;28;20034;-77
2021/08/12 04:32:06;;;;;;;8.45;5.13;;;;;;;;;;5016491;28;20479;-77
2021/08/12 04:34:32;;;;;;;9.52;5.68;;;;;;;;;;5014899;28;20117;-78
2021/08/12 04:36:58;;;;;;;9.65;4.90;;;;;;;;;;5016038;28;20449;-75
2021/08/12 04:39:24;;;;;;;7.70;5.07;;;;;;;;;;5016021;28;20026;-78
2021/08/12 04:41:50;;;;;;;9.35;4.90;;;;;;;;;;5016008;28;20022;-77
2021/08/12 04:44:16;;;;;;;7.15;4.38;;;;;;;;;;5015943;28;20105;-79
2021/08/12 04:46:42;;;;;;;6.97;4.97;;;;;;;;;;5015941;28;20026;-74
2021/08/12 04:49:08;;;;;;;9.70;4.97;;;;;;;;;;5014606;28;20394;-76
2021/08/12 04:51:34;;;;;;;7.60;5.22;;;;;;;;;;5015815;28;20029;-77
2021/08/12 04:54:00;;;;;;;9.93;5.07;;;;;;;;;;5016068;28;20033;-74
2021/08/12 04:56:26;;;;;;;10.55;5.00;;;;;;;;;;5015949;28;20022;-73
2021/08/12 04:58:58;;;;;;;9.75;5.40;;;;;;;;;;5015685;28;20084;-75
2021/08/12 05:01:24;;;;;;;7.35;5.15;;;;;;;;;;5014180;28;20493;-81
2021/08/12 05:03:50;;;;;;;7.97;5.13;;;;;;;;;;5015514;28;20062;-76
2021/08/12 05:06:16;;;;;;;9.10;5.45;;;;;;;;;;5015551;28;20120;-78
2021/08/12 05:08:43;;;;;;;9.68;5.60;;;;;;;;;;5015511;28;20475;-78
2021/08/12 05:11:09;;;;;;;10.43;5.38;;;;;;;;;;5015756;28;20045;-76
2021/08/12 05:13:35;;;;;;;9.30;5.32;;;;;;;;;;5015647;28;20040;-77
2021/08/12 05:16:02;;;;;;;6.78;5.00;;;;;;;;;;5015832;28;20033;-76
2021/08/12 05:18:28;;;;;;;8.65;5.78;;;;;;;;;;5015807;28;20064;-76
2021/08/12 05:20:54;;;;;;;8.18;5.28;;;;;;;;;;5015805;28;20050;-78
2021/08/12 05:23:20;;;;;;;9.10;4.68;;;;;;;;;;5015196;28;20033;-77
2021/08/12 05:25:46;;;;;;;7.72;4.68;;;;;;;;;;5015150;28;20026;-76
2021/08/12 05:28:15;;;;;;;7.65;4.03;;;;;;;;;;5015091;28;20497;-78
2021/08/12 05:30:41;;;;;;;9.10;5.00;;;;;;;;;;5015607;28;20033;-80
2021/08/12 05:33:07;;;;;;;8.30;5.07;;;;;;;;;;5015287;28;20025;-73
2021/08/12 05:35:33;;;;;;;7.95;4.88;;;;;;;;;;5014949;28;20525;-76
2021/08/12 05:37:59;;;;;;;8.50;4.72;;;;;;;;;;5014889;28;20061;-78
2021/08/12 05:40:25;;;;;;;9.40;5.05;;;;;;;;;;5014699;28;20030;-77
2021/08/12 05:42:51;;;;;;;9.25;5.20;;;;;;;;;;5015382;28;20033;-75
2021/08/12 05:45:17;;;;;;;9.02;5.10;;;;;;;;;;5015128;28;20030;-75
2021/08/12 05:47:43;;;;;;;8.25;5.10;;;;;;;;;;5014757;28;20478;-79
2021/08/12 05:50:09;;;;;;;7.40;5.47;;;;;;;;;;5015015;28;20474;-77
2021/08/12 05:52:37;;;;;;;7.57;5.47;;;;;;;;;;5014691;28;20029;-75
2021/08/12 05:55:03;;;;;;;7.40;5.47;;;;;;;;;;5015230;28;20076;-76
2021/08/12 05:57:29;;;;;;;9.63;5.30;;;;;;;;;;5014539;28;20036;-74
2021/08/12 05:59:55;;;;;;;7.57;5.47;;;;;;;;;;5014510;28;20026;-76
2021/08/12 06:02:21;;;;;;;9.43;5.60;;;;;;;;;;5014753;28;20367;-78
2021/08/12 06:04:47;;;;;;;9.65;6.30;;;;;;;;;;5014477;28;20474;-78
2021/08/12 06:07:14;;;;;;;10.68;6.40;;;;;;;;;;5014197;28;20089;-80
2021/08/12 06:09:40;;;;;;;7.82;5.40;;;;;;;;;;5014390;28;20474;-78
2021/08/12 06:12:06;;;;;;;9.15;5.68;;;;;;;;;;5013095;28;20080;-76
2021/08/12 06:14:32;;;;;;;10.57;6.32;;;;;;;;;;5014315;28;20394;-75
2021/08/12 06:16:58;;;;;;;8.63;6.60;;;;;;;;;;5014163;28;20026;-74
2021/08/12 06:19:24;;;;;;;8.48;5.95;;;;;;;;;;5014234;28;20029;-73
2021/08/12 06:21:50;;;;;;;8.35;6.20;;;;;;;;;;5014184;28;20026;-77
2021/08/12 06:24:16;;;;;;;11.30;5.93;;;;;;;;;;5012881;28;20474;-76
2021/08/12 06:26:44;;;;;;;8.30;5.20;;;;;;;;;;5014130;28;20033;-77
2021/08/12 06:29:10;;;;;;;8.35;5.38;;;;;;;;;;5014079;28;20032;-79
2021/08/12 06:31:37;;;;;;;6.88;4.88;;;;;;;;;;5014032;28;20034;-75
2021/08/12 06:34:03;;;;;;;8.77;5.78;;;;;;;;;;5014318;28;20050;-77
2021/08/12 06:36:31;;;;;;;8.73;5.63;;;;;;;;;;5013857;28;20025;-78
2021/08/12 06:38:59;;;;;;;8.27;5.93;;;;;;;;;;5014451;28;20018;-79
2021/08/12 06:41:26;;;;;;;10.23;7.03;;;;;;;;;;5013868;28;20029;-73
2021/08/12 06:43:52;;;;;;;10.23;6.65;;;;;;;;;;5013839;28;20022;-76
2021/08/12 06:46:18;;;;;;;11.05;6.47;;;;;;;;;;5013766;28;20030;-74
2021/08/12 06:48:44;;;;;;;10.05;5.90;;;;;;;;;;5013783;28;20034;-75
2021/08/12 06:51:11;;;;;;;9.10;6.50;;;;;;;;;;5014000;28;20034;-76
2021/08/12 06:53:37;;;;;;;11.52;7.45;;;;;;;;;;5013964;28;20022;-76
2021/08/12 06:56:04;;;;;;;10.68;6.15;;;;;;;;;;5013615;28;20034;-75
2021/08/12 06:58:30;;;;;;;9.00;6.20;;;;;;;;;;5013645;28;20033;-79
2021/08/12 07:00:56;;;;;;;9.05;5.82;;;;;;;;;;5013627;28;20026;-76
2021/08/12 07:03:22;;;;;;;7.55;5.70;;;;;;;;;;5013758;28;20459;-77
2021/08/12 07:05:48;;;;;;;10.13;6.78;;;;;;;;;;5013324;28;20033;-75
2021/08/12 07:08:14;;;;;;;11.30;6.60;;;;;;;;;;5013853;28;20438;-76
2021/08/12 07:10:40;;;;;;;10.27;6.40;;;;;;;;;;5013494;28;20110;-77
2021/08/12 07:13:06;;;;;;;10.75;7.47;;;;;;;;;;5013517;28;20050;-81
2021/08/12 07:15:32;;;;;;;11.90;6.25;;;;;;;;;;5013493;28;20029;-76
2021/08/12 07:17:58;;;;;;;12.63;7.03;;;;;;;;;;5013659;28;20437;-75
2021/08/12 07:20:24;;;;;;;10.15;6.40;;;;;;;;;;5013457;28;20026;-75
2021/08/12 07:22:50;;;;;;;8.90;6.30;;;;;;;;;;5013411;28;20030;-75
2021/08/12 07:25:16;;;;;;;12.18;7.15;;;;;;;;;;5013632;28;20109;-78
2021/08/12 07:27:43;;;;;;;9.68;6.07;;;;;;;;;;5013608;28;20526;-76
2021/08/12 07:30:09;;;;;;;8.82;5.82;;;;;;;;;;5012088;28;20053;-80
2021/08/12 07:32:35;;;;;;;11.00;5.75;;;;;;;;;;5013288;28;20029;-75
2021/08/12 07:35:01;;;;;;;10.52;6.20;;;;;;;;;;5013306;28;20026;-76
2021/08/12 07:37:27;;;;;;;9.93;6.93;;;;;;;;;;5013460;28;20033;-74
2021/08/12 07:39:53;;;;;;;9.40;7.18;;;;;;;;;;5013563;28;20102;-73
2021/08/12 07:42:19;;;;;;;10.75;7.20;;;;;;;;;;5013246;28;20033;-75
2021/08/12 07:44:48;;;;;;;11.70;8.02;;;;;;;;;;5013484;28;20049;-76
2021/08/12 07:47:14;;;;;;;9.02;6.60;;;;;;;;;;5013181;28;20029;-75
2021/08/12 07:49:41;;;;;;;10.45;6.35;;;;;;;;;;5013455;28;20026;-76
2021/08/12 07:52:07;;;;;;;11.05;6.82;;;;;;;;;;5013105;28;20022;-78
2021/08/12 07:54:33;;;;;;;11.38;6.22;;;;;;;;;;5013662;28;20026;-79
2021/08/12 07:56:59;;;;;;;9.95;6.45;;;;;;;;;;5012995;28;20091;-79
2021/08/12 07:59:25;;;;;;;11.27;6.85;;;;;;;;;;5013051;28;20112;-77
2021/08/12 08:01:53;;;;;;;15.80;7.07;;;;;;;;;;5012978;28;20030;-76
2021/08/12 08:04:19;;;;;;;12.88;6.25;;;;;;;;;;5013140;28;20022;-77
2021/08/12 08:06:45;;;;;;;9.80;6.25;;;;;;;;;;5016562;28;20054;-74
2021/08/12 08:09:11;;;;;;;11.43;6.63;;;;;;;;;;5016643;28;20033;-75
2021/08/12 08:11:37;;;;;;;13.77;6.95;;;;;;;;;;5016591;28;20026;-79
2021/08/12 08:14:03;;;;;;;11.57;6.55;;;;;;;;;;5016552;28;20021;-77
2021/08/12 08:16:29;;;;;;;10.10;7.00;;;;;;;;;;5016470;28;20061;-74
2021/08/12 08:18:55;;;;;;;13.07;7.85;;;;;;;;;;5016465;28;20025;-74
2021/08/12 08:21:21;;;;;;;10.02;6.78;;;;;;;;;;5016408;28;20022;-76
2021/08/12 08:23:47;;;;;;;10.27;7.30;;;;;;;;;;5016353;28;20136;-78
2021/08/12 08:26:13;;;;;;;10.98;7.53;;;;;;;;;;5016341;28;20124;-75
2021/08/12 08:28:39;;;;;;;11.25;7.93;;;;;;;;;;5016546;28;20503;-75
2021/08/12 08:31:05;;;;;;;12.40;8.07;;;;;;;;;;5016277;28;20087;-76
2021/08/12 08:33:35;;;;;;;11.70;7.78;;;;;;;;;;5016166;28;20030;-76
2021/08/12 08:36:02;;;;;;;11.27;7.10;;;;;;;;;;5014851;28;20491;-77
2021/08/12 08:38:30;;;;;;;10.88;6.65;;;;;;;;;;5016121;28;20026;-76
2021/08/12 08:40:56;;;;;;;10.98;7.03;;;;;;;;;;5016403;28;20030;-77
2021/08/12 08:43:23;;;;;;;11.18;6.00;;;;;;;;;;5014789;28;20026;-76
2021/08/12 08:45:49;;;;;;;10.02;7.38;;;;;;;;;;5016048;28;20044;-79
2021/08/12 08:48:16;;;;;;;10.85;7.00;;;;;;;;;;5015922;28;20141;-75
2021/08/12 08:50:44;;;;;;;9.57;5.93;;;;;;;;;;5015933;28;20096;-76
2021/08/12 08:53:15;;;;;;;9.90;6.38;;;;;;;;;;5016099;28;20101;-78
2021/08/12 08:55:41;;;;;;;10.52;6.43;;;;;;;;;;5016379;28;20018;-75
2021/08/12 08:58:07;;;;;;;10.43;6.78;;;;;;;;;;5015504;28;20034;-74
2021/08/12 09:00:33;;;;;;;8.38;6.38;;;;;;;;;;5015794;28;20022;-81
2021/08/12 09:02:59;;;;;;;11.70;6.40;;;;;;;;;;5015445;28;20100;-81
2021/08/12 09:05:25;;;;;;;9.68;6.10;;;;;;;;;;5015638;28;20033;-77
2021/08/12 09:07:51;;;;;;;8.52;6.00;;;;;;;;;;5015373;28;20045;-77
2021/08/12 09:10:18;;;;;;;8.65;5.80;;;;;;;;;;5015531;28;20097;-77
2021/08/12 09:12:44;;;;;;;10.05;6.00;;;;;;;;;;5014224;28;20465;-79
2021/08/12 09:15:13;;;;;;;9.02;6.22;;;;;;;;;;5014670;28;20089;-77
2021/08/12 09:17:39;;;;;;;7.97;5.53;;;;;;;;;;5015672;28;20356;-76
2021/08/12 09:20:06;;;;;;;9.82;6.03;;;;;;;;;;5015315;28;20100;-78
2021/08/12 09:22:50;;;;;;;8.50;5.32;;;;;;;;;;5015246;28;20071;-76
2021/08/12 09:25:28;;;;;;;8.80;5.53;;;;;;;;;;5015217;28;20429;-75
2021/08/12 09:28:09;;;;;;;7.13;5.30;;;;;;;;;;5015796;28;20034;-77
2021/08/12 09:30:35;;;;;;;8.38;5.80;;;;;;;;;;5015382;28;20040;-79
2021/08/12 09:33:01;;;;;;;8.60;5.70;;;;;;;;;;5015086;28;20108;-78
2021/08/12 09:35:27;;;;;;;8.15;5.65;;;;;;;;;;5015313;28;20101;-80
2021/08/12 09:37:54;;;;;;;10.10;5.50;;;;;;;;;;5013676;28;20061;-74
2021/08/12 09:40:25;;;;;;;13.33;5.47;;;;;;;;;;5014955;28;20069;-78
2021/08/12 09:43:10;;;;;;;6.47;4.97;;;;;;;;;;5014945;28;20106;-78
2021/08/12 09:45:39;;;;;;;6.90;4.78;;;;;;;;;;5015193;28;20093;-80
2021/08/12 09:48:12;;;;;;;9.07;5.32;;;;;;;;;;5015076;28;20038;-77
2021/08/12 09:50:39;;;;;;;14.20;5.75;;;;;;;;;;5015064;28;20018;-81
2021/08/12 09:53:05;;;;;;;10.27;4.80;;;;;;;;;;5015023;28;20053;-78
2021/08/12 09:55:38;;;;;;;8.65;5.05;;;;;;;;;;5014698;28;20022;-76
2021/08/12 09:58:07;;;;;;;9.15;5.38;;;;;;;;;;5014958;28;20041;-77
2021/08/12 10:00:34;;;;;;;6.43;5.13;;;;;;;;;;5015061;28;20482;-78
2021/08/12 10:03:00;;;;;;;8.30;5.05;;;;;;;;;;5014623;28;20022;-79
2021/08/12 10:05:27;;;;;;;8.88;4.85;;;;;;;;;;5015842;28;20100;-77
2021/08/12 10:07:54;;;;;;;6.75;4.95;;;;;;;;;;5016115;28;20053;-80
2021/08/12 10:10:20;;;;;;;7.40;5.15;;;;;;;;;;5015554;28;20045;-76
2021/08/12 10:12:50;;;;;;;11.18;4.57;;;;;;;;;;5015634;28;20513;-76
2021/08/12 10:15:34;;;;;;;6.47;4.65;;;;;;;;;;5018063;28;20108;-74
2021/08/12 10:18:02;;;;;;;7.30;4.90;;;;;;;;;;5015675;28;20026;-80
2021/08/12 10:20:30;;;;;;;6.97;4.00;;;;;;;;;;5015543;28;20026;-77
2021/08/12 10:22:57;;;;;;;6.18;3.97;;;;;;;;;;5015204;28;20425;-77
2021/08/12 10:25:24;;;;;;;7.05;4.70;;;;;;;;;;5015018;28;20026;-81
2021/08/12 10:27:55;;;;;;;6.07;3.83;;;;;;;;;;5013882;28;20088;-77
2021/08/12 10:30:21;;;;;;;7.35;4.63;;;;;;;;;;5014746;28;20030;-77
2021/08/12 10:32:50;;;;;;;6.72;4.30;;;;;;;;;;5014615;28;20025;-77
2021/08/12 10:35:16;;;;;;;5.45;3.97;;;;;;;;;;5014161;28;20057;-76
2021/08/12 10:37:42;;;;;;;8.02;4.05;;;;;;;;;;5012847;28;20026;-80
2021/08/12 10:40:13;;;;;;;5.60;3.80;;;;;;;;;;5014246;28;20026;-76
2021/08/12 10:42:48;;;;;;;6.13;4.63;;;;;;;;;;5015148;28;20018;-76
2021/08/12 10:45:19;;;;;;;5.93;4.28;;;;;;;;;;5015489;28;20064;-77
2021/08/12 10:47:54;;;;;;;7.30;4.57;;;;;;;;;;5014433;28;20104;-75
2021/08/12 10:50:23;;;;;;;7.88;5.00;;;;;;;;;;5015433;28;20021;-79
2021/08/12 10:53:10;;;;;;;7.05;4.00;;;;;;;;;;5016247;28;20046;-77
2021/08/12 10:55:56;;;;;;;6.32;3.90;;;;;;;;;;5027039;28;20053;-72
2021/08/12 10:58:23;;;;;;;7.10;4.38;;;;;;;;;;5036953;28;20017;-73
2021/08/12 11:00:53;;;;;;;7.13;4.35;;;;;;;;;;5026638;28;20386;-78
2021/08/12 11:03:34;;;;;;;6.20;4.30;;;;;;;;;;5014049;28;20022;-76
2021/08/12 11:06:00;;;;;;;8.65;4.60;;;;;;;;;;5013444;28;20050;-79
2021/08/12 11:08:46;;;;;;;7.47;5.10;;;;;;;;;;5013505;28;20104;-75
2021/08/12 11:11:12;;;;;;;6.60;4.88;;;;;;;;;;5003280;28;20045;-78
2021/08/12 11:13:39;;;;;;;6.53;4.47;;;;;;;;;;5013999;28;20022;-75
2021/08/12 11:16:05;;;;;;;9.35;5.18;;;;;;;;;;5012123;28;20445;-75
2021/08/12 11:18:43;;;;;;;7.00;5.05;;;;;;;;;;5013436;28;20421;-76
2021/08/12 11:21:28;;;;;;;8.45;4.65;;;;;;;;;;5013451;28;20018;-76
2021/08/12 11:23:54;;;;;;;7.90;5.32;;;;;;;;;;5013440;28;20030;-78
2021/08/12 11:26:20;;;;;;;7.78;4.90;;;;;;;;;;5013944;28;20080;-76
2021/08/12 11:28:53;;;;;;;7.93;4.68;;;;;;;;;;5013656;28;20034;-75
2021/08/12 11:31:23;;;;;;;7.43;5.18;;;;;;;;;;5013415;28;20022;-76
2021/08/12 11:33:54;;;;;;;10.23;6.28;;;;;;;;;;5012111;28;20033;-78
2021/08/12 11:36:22;;;;;;;11.98;5.75;;;;;;;;;;5013239;28;20028;-79
2021/08/12 11:38:49;;;;;;;8.65;5.15;;;;;;;;;;5013949;28;20144;-75
2021/08/12 11:41:16;;;;;;;8.18;5.07;;;;;;;;;;5017183;28;20049;-78
2021/08/12 11:43:42;;;;;;;8.57;5.72;;;;;;;;;;5017136;28;20144;-77
2021/08/12 11:46:09;;;;;;;7.05;5.40;;;;;;;;;;5017131;28;20029;-79
2021/08/12 11:48:35;;;;;;;7.68;5.07;;;;;;;;;;5017251;28;20026;-77
2021/08/12 11:51:02;;;;;;;8.90;4.88;;;;;;;;;;5017019;28;20026;-79
2021/08/12 11:53:37;;;;;;;7.65;5.07;;;;;;;;;;5016925;28;20064;-79
2021/08/12 11:56:21;;;;;;;9.80;5.00;;;;;;;;;;5017115;28;20022;-73
2021/08/12 11:58:48;;;;;;;9.45;5.85;;;;;;;;;;5017359;28;20028;-79
2021/08/12 12:01:15;;;;;;;6.75;4.68;;;;;;;;;;5016795;28;20512;-75
2021/08/12 12:03:41;;;;;;;55.22;12.98;;;;;;;;;;5016701;28;20109;-79
2021/08/12 12:06:07;;;;;;;9.10;5.55;;;;;;;;;;5015218;28;20078;-79
2021/08/12 12:08:34;;;;;;;7.10;5.07;;;;;;;;;;5016978;28;20025;-76
2021/08/12 12:11:07;;;;;;;8.68;5.30;;;;;;;;;;5015372;28;20022;-80
2021/08/12 12:13:33;;;;;;;7.15;4.90;;;;;;;;;;5016607;28;20061;-77
2021/08/12 12:15:59;;;;;;;8.27;5.07;;;;;;;;;;5016470;28;20057;-78
2021/08/12 12:18:32;;;;;;;7.40;4.75;;;;;;;;;;5016763;28;20108;-76
2021/08/12 12:21:03;;;;;;;7.50;4.78;;;;;;;;;;5017027;28;20053;-82
2021/08/12 12:23:29;;;;;;;8.10;5.20;;;;;;;;;;5016922;28;20030;-78
2021/08/12 12:25:55;;;;;;;7.88;5.30;;;;;;;;;;5016366;28;20018;-80
2021/08/12 12:28:21;;;;;;;7.85;5.10;;;;;;;;;;5016047;28;20157;-76
2021/08/12 12:30:47;;;;;;;7.68;4.88;;;;;;;;;;5016650;28;20532;-80
2021/08/12 12:33:16;;;;;;;9.05;5.35;;;;;;;;;;5015115;28;20117;-79
2021/08/12 12:35:46;;;;;;;8.30;5.40;;;;;;;;;;5016545;28;20014;-78
2021/08/12 12:38:18;;;;;;;8.02;5.20;;;;;;;;;;5016599;28;20033;-81
2021/08/12 12:40:44;;;;;;;8.32;5.20;;;;;;;;;;5016427;28;20116;-79
2021/08/12 12:43:11;;;;;;;8.23;4.68;;;;;;;;;;5015990;28;20390;-76
2021/08/12 12:45:49;;;;;;;8.65;5.47;;;;;;;;;;5015941;28;20474;-75
2021/08/12 12:48:16;;;;;;;6.93;4.80;;;;;;;;;;5016443;28;20088;-77
2021/08/12 12:50:44;;;;;;;8.40;4.90;;;;;;;;;;5016746;28;20568;-78
2021/08/12 12:53:10;;;;;;;9.48;5.82;;;;;;;;;;5016750;28;20054;-79
2021/08/12 12:55:40;;;;;;;7.63;5.13;;;;;;;;;;5014827;28;20036;-83
2021/08/12 12:58:15;;;;;;;8.90;5.50;;;;;;;;;;5016048;28;20076;-82
2021/08/12 13:00:43;;;;;;;10.07;5.78;;;;;;;;;;5016209;28;20022;-84
2021/08/12 13:03:10;;;;;;;8.50;5.13;;;;;;;;;;5015809;28;20026;-82
2021/08/12 13:05:58;;;;;;;8.65;5.47;;;;;;;;;;5016239;28;20017;-80
2021/08/12 13:08:24;;;;;;;9.45;4.95;;;;;;;;;;5015341;28;20034;-79
2021/08/12 13:11:09;;;;;;;9.63;5.85;;;;;;;;;;5015860;28;20389;-79
2021/08/12 13:13:36;;;;;;;8.43;4.75;;;;;;;;;;5016001;28;20044;-86
2021/08/12 13:16:03;;;;;;;7.45;5.32;;;;;;;;;;5015689;28;20478;-81
2021/08/12 13:18:48;;;;;;;7.35;4.97;;;;;;;;;;5016262;28;20029;-76
2021/08/12 13:21:28;;;;;;;8.50;5.50;;;;;;;;;;5015812;28;20053;-83
2021/08/12 13:23:54;;;;;;;9.60;5.63;;;;;;;;;;5015691;28;20502;-82
2021/08/12 13:26:38;;;;;;;9.75;5.53;;;;;;;;;;5015560;28;20030;-79
2021/08/12 13:29:08;;;;;;;8.57;5.18;;;;;;;;;;5015715;28;20026;-78
2021/08/12 13:31:37;;;;;;;8.13;5.30;;;;;;;;;;5016831;28;20069;-76
2021/08/12 13:34:03;;;;;;;10.65;5.05;;;;;;;;;;5016240;28;20109;-75
2021/08/12 13:36:29;;;;;;;9.82;5.65;;;;;;;;;;5015542;28;20066;-76
2021/08/12 13:38:55;;;;;;;8.50;5.07;;;;;;;;;;5016254;28;20069;-77
2021/08/12 13:41:21;;;;;;;8.77;5.28;;;;;;;;;;5016388;28;20541;-78
2021/08/12 13:43:47;;;;;;;7.10;4.53;;;;;;;;;;5015719;28;20036;-78
2021/08/12 13:46:13;;;;;;;6.63;4.68;;;;;;;;;;5015393;28;20076;-80
2021/08/12 13:48:39;;;;;;;8.60;5.45;;;;;;;;;;5014889;28;20546;-78
2021/08/12 13:51:05;;;;;;;7.85;5.50;;;;;;;;;;5015342;28;20079;-77
2021/08/12 13:53:32;;;;;;;9.38;5.45;;;;;;;;;;5014993;28;20026;-78
2021/08/12 13:55:58;;;;;;;7.90;5.35;;;;;;;;;;5014609;28;20022;-78
2021/08/12 13:58:23;;;;;;;8.85;5.40;;;;;;;;;;5014936;28;20026;-78
2021/08/12 14:00:49;;;;;;;8.57;5.13;;;;;;;;;;5013272;28;20398;-80
2021/08/12 14:03:21;;;;;;;7.10;5.00;;;;;;;;;;5014630;28;20036;-76
2021/08/12 14:05:47;;;;;;;8.90;5.70;;;;;;;;;;5014885;28;20100;-76
2021/08/12 14:08:16;;;;;;;8.60;5.45;;;;;;;;;;5014727;28;20052;-81
2021/08/12 14:10:43;;;;;;;6.70;4.63;;;;;;;;;;5014451;28;20076;-81
2021/08/12 14:13:09;;;;;;;7.20;4.53;;;;;;;;;;5014453;28;20264;-79
2021/08/12 14:15:35;;;;;;;9.35;5.75;;;;;;;;;;5014035;28;20460;-81
2021/08/12 14:18:01;;;;;;;7.30;5.57;;;;;;;;;;5013240;28;20036;-80
2021/08/12 14:20:27;;;;;;;8.18;5.35;;;;;;;;;;5013680;28;20456;-79
2021/08/12 14:22:53;;;;;;;8.95;5.60;;;;;;;;;;5014374;28;20030;-78
2021/08/12 14:25:19;;;;;;;8.85;5.15;;;;;;;;;;5014073;28;20022;-74
2021/08/12 14:27:47;;;;;;;7.30;4.90;;;;;;;;;;5014147;28;20491;-76
2021/08/12 14:30:14;;;;;;;7.75;4.80;;;;;;;;;;5014067;28;20418;-78
2021/08/12 14:32:40;;;;;;;9.80;5.43;;;;;;;;;;5014315;28;20030;-81
2021/08/12 14:35:06;;;;;;;9.23;5.63;;;;;;;;;;5012741;28;20032;-81
2021/08/12 14:37:32;;;;;;;7.22;4.80;;;;;;;;;;5013899;28;20125;-80
2021/08/12 14:40:03;;;;;;;7.97;5.03;;;;;;;;;;5013957;28;20080;-76
2021/08/12 14:42:29;;;;;;;10.60;5.28;;;;;;;;;;5014215;28;20053;-78
2021/08/12 14:44:55;;;;;;;8.07;5.30;;;;;;;;;;5013857;28;20498;-77